Time;durP1;ratioP1;P1;durP2;ratioP2;P2;SDS_P1;SDS_P2;PMS_P1;PMS_P2;Temp;Humidity;BMP_temperature;BMP_pressure;BME280_temperature;BME280_humidity;BME280_pressure;Samples;Min_cycle;Max_cycle;Signal;HPM_P1;HPM_P2
2021/04/27 00:01:45;;;;;;;36.33;22.55;;;3.10;81.50;;;;;;5088636;28;20045;-67
2021/04/27 00:04:10;;;;;;;39.47;25.88;;;3.10;81.80;;;;;;5091503;28;20024;-67
2021/04/27 00:06:37;;;;;;;44.40;27.35;;;3.00;81.70;;;;;;5093366;28;20335;-67
2021/04/27 00:09:05;;;;;;;58.17;33.83;;;3.10;81.80;;;;;;5090922;28;20044;-67
2021/04/27 00:11:31;;;;;;;56.17;33.30;;;3.00;81.80;;;;;;5092672;28;20043;-67
2021/04/27 00:13:57;;;;;;;56.00;34.17;;;3.00;81.90;;;;;;5091774;28;20027;-67
2021/04/27 00:16:23;;;;;;;54.97;34.97;;;2.90;82.00;;;;;;5086713;28;20442;-67
2021/04/27 00:18:49;;;;;;;52.28;29.85;;;2.90;82.20;;;;;;5092902;28;20020;-67
2021/04/27 00:21:14;;;;;;;50.75;29.00;;;2.90;82.30;;;;;;5092403;28;20016;-67
2021/04/27 00:23:40;;;;;;;42.95;26.90;;;2.90;82.50;;;;;;5081775;28;20028;-68
2021/04/27 00:26:06;;;;;;;45.65;26.58;;;2.90;82.70;;;;;;5088080;28;20012;-67
2021/04/27 00:28:31;;;;;;;40.33;24.42;;;2.90;82.80;;;;;;5091714;28;20466;-67
2021/04/27 00:30:57;;;;;;;43.30;25.67;;;2.90;83.00;;;;;;5093067;28;20466;-67
2021/04/27 00:33:23;;;;;;;47.20;25.58;;;2.90;82.90;;;;;;5090841;28;20370;-67
2021/04/27 00:35:48;;;;;;;45.58;27.42;;;2.90;82.90;;;;;;5084503;28;20026;-67
2021/04/27 00:38:14;;;;;;;39.78;24.92;;;2.90;82.90;;;;;;5092113;28;20027;-67
2021/04/27 00:40:40;;;;;;;40.08;24.55;;;2.90;82.80;;;;;;5092144;28;20020;-67
2021/04/27 00:43:05;;;;;;;37.35;23.70;;;2.80;82.90;;;;;;5091941;28;20074;-67
2021/04/27 00:45:31;;;;;;;41.70;24.33;;;2.90;82.90;;;;;;5089949;28;20048;-68
2021/04/27 00:47:58;;;;;;;34.33;21.75;;;2.90;82.90;;;;;;5084796;28;20056;-67
2021/04/27 00:50:35;;;;;;;41.00;23.83;;;2.80;82.90;;;;;;5092046;28;20476;-68
2021/04/27 00:53:03;;;;;;;35.60;20.88;;;2.80;83.80;;;;;;5091158;28;20365;-67
2021/04/27 00:55:29;;;;;;;34.60;20.92;;;2.80;83.40;;;;;;5092074;28;20024;-68
2021/04/27 00:57:55;;;;;;;40.28;22.15;;;2.80;83.40;;;;;;5092347;28;20097;-67
2021/04/27 01:00:24;;;;;;;41.47;23.02;;;2.70;83.50;;;;;;5090617;28;20477;-67
2021/04/27 01:02:51;;;;;;;36.53;22.27;;;2.70;83.60;;;;;;5091682;28;20030;-67
2021/04/27 01:05:22;;;;;;;38.25;22.70;;;2.70;83.70;;;;;;5092280;28;20043;-67
2021/04/27 01:08:17;;;;;;;37.80;21.35;;;2.70;83.70;;;;;;5090588;28;20020;-68
2021/04/27 01:11:03;;;;;;;39.75;21.42;;;2.60;83.70;;;;;;5089361;28;20127;-69
2021/04/27 01:13:48;;;;;;;38.53;21.95;;;2.60;83.70;;;;;;5090475;28;20036;-67
2021/04/27 01:16:17;;;;;;;32.58;18.77;;;2.60;83.90;;;;;;5090934;28;20016;-69
2021/04/27 01:18:47;;;;;;;29.73;18.27;;;2.50;84.00;;;;;;5091977;28;20493;-67
2021/04/27 01:21:13;;;;;;;35.45;19.65;;;2.60;84.20;;;;;;5090606;28;20100;-67
2021/04/27 01:24:04;;;;;;;33.53;20.25;;;2.50;84.20;;;;;;5092197;28;20078;-67
2021/04/27 01:26:33;;;;;;;34.33;20.60;;;2.50;84.20;;;;;;5089480;28;20345;-67
2021/04/27 01:28:59;;;;;;;30.48;18.40;;;2.50;84.80;;;;;;5095804;28;20450;-67
2021/04/27 01:31:26;;;;;;;34.10;17.60;;;2.50;84.30;;;;;;5095012;28;20016;-68
2021/04/27 01:33:53;;;;;;;27.23;17.23;;;2.40;84.40;;;;;;5096010;28;20030;-67
2021/04/27 01:36:19;;;;;;;28.98;18.40;;;2.40;84.60;;;;;;5093591;28;20020;-68
2021/04/27 01:38:44;;;;;;;28.58;17.13;;;2.40;84.70;;;;;;5095246;28;20024;-68
2021/04/27 01:41:10;;;;;;;26.45;17.08;;;2.40;84.60;;;;;;5094286;28;20024;-67
2021/04/27 01:43:36;;;;;;;24.05;16.35;;;2.40;84.80;;;;;;5094640;28;20427;-68
2021/04/27 01:46:06;;;;;;;29.58;19.55;;;2.40;85.10;;;;;;5095930;28;20042;-68
2021/04/27 01:48:34;;;;;;;35.05;20.85;;;2.50;85.40;;;;;;5094103;28;20032;-67
2021/04/27 01:51:00;;;;;;;32.20;18.40;;;2.50;86.10;;;;;;5095449;28;20095;-67
2021/04/27 01:53:26;;;;;;;30.38;16.73;;;2.50;85.50;;;;;;5095342;28;20055;-67
2021/04/27 01:55:52;;;;;;;27.52;16.42;;;2.50;85.60;;;;;;5094874;28;20103;-70
2021/04/27 01:58:19;;;;;;;32.72;15.68;;;2.50;85.60;;;;;;5088794;28;20107;-67
2021/04/27 02:00:45;;;;;;;30.00;15.93;;;2.60;85.50;;;;;;5093812;28;20035;-67
2021/04/27 02:03:11;;;;;;;39.90;21.13;;;2.60;85.40;;;;;;5094708;28;20454;-67
2021/04/27 02:05:37;;;;;;;42.78;23.65;;;2.60;85.30;;;;;;5094960;28;20076;-67
2021/04/27 02:08:03;;;;;;;45.63;23.17;;;2.60;85.20;;;;;;5084498;28;20424;-67
2021/04/27 02:10:29;;;;;;;48.47;23.35;;;2.60;85.20;;;;;;5088641;28;20040;-67
2021/04/27 02:13:04;;;;;;;46.83;24.10;;;2.60;85.20;;;;;;5094318;28;20023;-67
2021/04/27 02:15:30;;;;;;;48.10;23.85;;;2.50;85.20;;;;;;5091022;28;20400;-67
2021/04/27 02:17:59;;;;;;;47.25;24.33;;;2.50;85.20;;;;;;5086850;28;20013;-67
2021/04/27 02:20:26;;;;;;;42.72;22.73;;;2.50;85.40;;;;;;5095433;28;20023;-67
2021/04/27 02:22:54;;;;;;;43.28;21.15;;;2.50;85.50;;;;;;5086522;28;20024;-67
2021/04/27 02:25:24;;;;;;;32.53;17.77;;;2.50;85.50;;;;;;5094817;28;20024;-67
2021/04/27 02:27:51;;;;;;;30.90;16.38;;;2.50;85.60;;;;;;5094446;28;20024;-66
2021/04/27 02:30:19;;;;;;;29.02;15.10;;;2.50;85.70;;;;;;5094809;28;20034;-67
2021/04/27 02:32:45;;;;;;;30.95;16.10;;;2.50;85.70;;;;;;5093639;28;20091;-67
2021/04/27 02:35:13;;;;;;;27.30;15.32;;;2.50;85.70;;;;;;5093486;28;20467;-67
2021/04/27 02:37:44;;;;;;;39.28;21.30;;;2.50;85.70;;;;;;5088622;28;20103;-67
2021/04/27 02:40:14;;;;;;;36.10;20.75;;;2.50;85.80;;;;;;5093278;28;20016;-67
2021/04/27 02:42:40;;;;;;;31.02;16.38;;;2.50;86.00;;;;;;5069104;28;20028;-67
2021/04/27 02:45:08;;;;;;;31.88;17.17;;;2.60;86.10;;;;;;5090103;28;20047;-68
2021/04/27 02:47:35;;;;;;;29.92;18.02;;;2.60;86.30;;;;;;5075272;28;20024;-67
2021/04/27 02:50:02;;;;;;;37.05;19.38;;;2.60;86.40;;;;;;5091729;28;20024;-68
2021/04/27 02:52:27;;;;;;;41.20;19.83;;;2.60;86.40;;;;;;5093689;28;20038;-68
2021/04/27 02:54:53;;;;;;;34.88;18.35;;;2.70;86.60;;;;;;5094412;28;20388;-67
2021/04/27 02:57:19;;;;;;;34.63;18.73;;;2.80;86.80;;;;;;5093156;28;20072;-67
2021/04/27 02:59:45;;;;;;;33.13;15.50;;;2.90;87.20;;;;;;5093846;28;20017;-68
2021/04/27 03:02:10;;;;;;;33.60;17.85;;;3.00;87.30;;;;;;5089586;28;20485;-67
2021/04/27 03:04:36;;;;;;;32.50;16.75;;;3.20;87.40;;;;;;5085567;28;20114;-68
2021/04/27 03:07:02;;;;;;;27.83;15.40;;;3.40;87.40;;;;;;5093968;28;20016;-68
2021/04/27 03:09:28;;;;;;;31.15;16.02;;;3.50;87.20;;;;;;5093751;28;20054;-67
2021/04/27 03:11:53;;;;;;;25.35;14.38;;;3.70;87.10;;;;;;5092849;28;20052;-67
2021/04/27 03:14:19;;;;;;;29.17;16.55;;;3.90;86.60;;;;;;5092890;28;20020;-68
2021/04/27 03:16:45;;;;;;;29.38;16.38;;;4.10;86.80;;;;;;5092486;28;20024;-68
2021/04/27 03:19:10;;;;;;;30.63;14.93;;;4.30;86.90;;;;;;5093777;28;20145;-69
2021/04/27 03:21:36;;;;;;;25.38;13.52;;;4.60;86.50;;;;;;5092577;28;20028;-68
2021/04/27 03:24:02;;;;;;;16.05;10.68;;;4.80;86.40;;;;;;5092099;28;20112;-67
2021/04/27 03:26:28;;;;;;;20.17;12.68;;;5.10;86.00;;;;;;5091771;28;20027;-68
2021/04/27 03:28:54;;;;;;;22.00;14.65;;;5.40;85.50;;;;;;5093920;28;20028;-68
2021/04/27 03:31:19;;;;;;;24.67;14.10;;;5.70;84.70;;;;;;5092192;28;20343;-68
2021/04/27 03:33:45;;;;;;;21.95;14.13;;;6.00;84.40;;;;;;5091156;28;20385;-69
2021/04/27 03:36:11;;;;;;;25.02;14.88;;;6.20;83.40;;;;;;5092641;28;20031;-68
2021/04/27 03:38:37;;;;;;;18.92;13.27;;;6.50;82.70;;;;;;5091734;28;20042;-69
2021/04/27 03:41:03;;;;;;;22.67;13.68;;;6.80;81.70;;;;;;5091674;28;20492;-68
2021/04/27 03:43:28;;;;;;;17.67;11.13;;;7.20;80.80;;;;;;5093215;28;20153;-68
2021/04/27 03:45:54;;;;;;;17.05;11.10;;;7.40;77.90;;;;;;5092397;28;20486;-68
2021/04/27 03:48:22;;;;;;;16.60;11.13;;;7.30;76.60;;;;;;5090174;28;20358;-68
2021/04/27 03:50:48;;;;;;;15.82;11.80;;;7.30;75.40;;;;;;5092058;28;20031;-68
2021/04/27 03:53:14;;;;;;;18.20;11.82;;;7.40;76.50;;;;;;5092347;28;20024;-69
2021/04/27 03:55:40;;;;;;;17.67;11.50;;;7.50;75.90;;;;;;5093408;28;20024;-68
2021/04/27 03:58:07;;;;;;;14.82;9.98;;;7.60;75.30;;;;;;5092497;28;20012;-68
2021/04/27 04:00:33;;;;;;;12.38;8.80;;;7.80;76.40;;;;;;5092420;28;20027;-68
2021/04/27 04:03:00;;;;;;;15.18;8.05;;;8.20;76.20;;;;;;5081681;28;20411;-69
2021/04/27 04:05:25;;;;;;;13.38;8.00;;;8.60;75.40;;;;;;5091465;28;20031;-67
2021/04/27 04:07:51;;;;;;;13.52;8.25;;;9.00;74.10;;;;;;5091610;28;20462;-71
2021/04/27 04:10:17;;;;;;;10.82;7.75;;;9.20;73.00;;;;;;5093194;28;20079;-70
2021/04/27 04:12:43;;;;;;;16.00;9.20;;;9.40;72.10;;;;;;5088614;28;20061;-70
2021/04/27 04:15:13;;;;;;;14.10;9.32;;;9.60;71.30;;;;;;5091570;28;20043;-70
2021/04/27 04:17:39;;;;;;;21.45;9.43;;;10.00;70.70;;;;;;5083363;28;20020;-68
2021/04/27 04:20:10;;;;;;;14.35;9.30;;;10.40;70.00;;;;;;5088240;28;20101;-68
2021/04/27 04:22:37;;;;;;;15.30;8.60;;;10.90;69.00;;;;;;5091351;28;20024;-66
2021/04/27 04:25:06;;;;;;;15.07;8.20;;;11.40;67.60;;;;;;5091587;28;20069;-74
2021/04/27 04:27:31;;;;;;;13.63;9.80;;;11.60;65.80;;;;;;5093087;28;20449;-69
2021/04/27 04:29:57;;;;;;;17.45;11.63;;;11.80;64.30;;;;;;5092384;28;20020;-71
2021/04/27 04:32:23;;;;;;;17.13;12.50;;;12.00;63.40;;;;;;5091348;28;20111;-68
2021/04/27 04:34:49;;;;;;;19.50;13.65;;;12.20;62.70;;;;;;5091578;28;20073;-68
2021/04/27 04:37:14;;;;;;;21.15;14.50;;;12.30;61.60;;;;;;5090951;28;20369;-68
2021/04/27 04:39:40;;;;;;;20.88;14.70;;;12.50;61.50;;;;;;5090347;28;20472;-67
2021/04/27 04:42:06;;;;;;;23.67;16.00;;;12.60;60.70;;;;;;5092216;28;20347;-68
2021/04/27 04:44:32;;;;;;;22.42;14.95;;;12.80;60.50;;;;;;5089816;28;20032;-66
2021/04/27 04:46:58;;;;;;;24.33;16.42;;;13.10;60.00;;;;;;5085690;28;20040;-66
2021/04/27 04:49:24;;;;;;;21.65;14.93;;;13.50;58.70;;;;;;5087666;28;20525;-69
2021/04/27 04:51:51;;;;;;;20.17;12.80;;;13.80;57.50;;;;;;5086601;28;20020;-72
2021/04/27 04:54:18;;;;;;;19.85;11.93;;;14.10;56.70;;;;;;5086491;28;20039;-72
2021/04/27 04:56:44;;;;;;;14.50;10.15;;;14.20;55.70;;;;;;5088619;28;20387;-71
2021/04/27 04:59:10;;;;;;;14.35;10.02;;;14.40;55.20;;;;;;5090193;28;20028;-75
2021/04/27 05:01:43;;;;;;;15.13;10.48;;;14.60;55.80;;;;;;5090547;28;20024;-73
2021/04/27 05:04:09;;;;;;;16.98;11.07;;;14.90;54.60;;;;;;5095747;28;20027;-75
2021/04/27 05:06:41;;;;;;;17.48;11.13;;;15.40;54.00;;;;;;5094903;28;20374;-74
2021/04/27 05:09:08;;;;;;;17.33;9.73;;;15.80;53.50;;;;;;5095167;28;20020;-75
2021/04/27 05:11:34;;;;;;;14.73;9.48;;;16.10;52.50;;;;;;5095370;28;20044;-75
2021/04/27 05:14:00;;;;;;;12.60;9.00;;;16.30;51.60;;;;;;5095243;28;20028;-83
2021/04/27 05:16:27;;;;;;;12.48;7.60;;;16.30;51.10;;;;;;5092826;28;20031;-74
2021/04/27 05:18:53;;;;;;;11.55;8.13;;;16.40;50.90;;;;;;5094658;28;20102;-76
2021/04/27 05:21:19;;;;;;;12.70;7.43;;;16.60;51.00;;;;;;5091300;28;20017;-83
2021/04/27 05:23:45;;;;;;;12.27;7.93;;;16.90;50.40;;;;;;5087228;28;20035;-72
2021/04/27 05:26:11;;;;;;;12.88;7.35;;;16.90;49.20;;;;;;5091389;28;20468;-72
2021/04/27 05:28:38;;;;;;;13.25;6.60;;;17.10;48.50;;;;;;5089365;28;20024;-70
2021/04/27 05:31:04;;;;;;;11.70;6.68;;;17.00;47.70;;;;;;5095660;28;20024;-71
2021/04/27 05:33:30;;;;;;;11.25;6.07;;;16.90;47.60;;;;;;5086779;28;20024;-73
2021/04/27 05:35:55;;;;;;;9.60;6.55;;;17.20;47.70;;;;;;5094085;28;20035;-71
2021/04/27 05:38:21;;;;;;;8.77;5.82;;;17.50;47.30;;;;;;5078355;28;20039;-72
2021/04/27 05:40:47;;;;;;;9.38;4.97;;;17.70;46.70;;;;;;5088572;28;20418;-72
2021/04/27 05:43:13;;;;;;;9.13;4.60;;;18.00;45.90;;;;;;5093951;28;20044;-72
2021/04/27 05:45:39;;;;;;;7.15;4.22;;;18.20;44.50;;;;;;5093636;28;20027;-71
2021/04/27 05:48:05;;;;;;;7.53;4.15;;;18.10;42.60;;;;;;5092253;28;20109;-71
2021/04/27 05:50:31;;;;;;;8.07;4.30;;;17.70;42.60;;;;;;5092494;28;20024;-73
2021/04/27 05:52:57;;;;;;;7.75;4.25;;;17.90;42.70;;;;;;5089968;28;20050;-74
2021/04/27 05:55:23;;;;;;;5.95;4.05;;;18.10;42.90;;;;;;5089164;28;20024;-79
2021/04/27 05:57:49;;;;;;;6.80;4.10;;;18.30;42.40;;;;;;5093092;28;20477;-75
2021/04/27 06:00:15;;;;;;;8.68;4.68;;;18.40;42.30;;;;;;5094429;28;20439;-78
2021/04/27 06:02:41;;;;;;;5.90;4.20;;;18.70;41.70;;;;;;5090604;28;20039;-72
2021/04/27 06:05:08;;;;;;;6.32;4.18;;;19.00;41.10;;;;;;5090552;28;20389;-76
2021/04/27 06:07:34;;;;;;;7.18;4.03;;;19.30;41.10;;;;;;5081010;28;20028;-72
2021/04/27 06:09:59;;;;;;;7.80;3.75;;;19.50;40.30;;;;;;5088400;28;20509;-77
2021/04/27 06:12:25;;;;;;;8.25;4.00;;;19.80;39.90;;;;;;5094030;28;20043;-74
2021/04/27 06:14:51;;;;;;;7.03;3.65;;;20.00;39.50;;;;;;5084131;28;20344;-70
2021/04/27 06:17:16;;;;;;;9.23;3.83;;;20.00;38.50;;;;;;5091819;28;20020;-71
2021/04/27 06:19:42;;;;;;;7.53;3.83;;;20.00;38.60;;;;;;5093362;28;20625;-71
2021/04/27 06:22:08;;;;;;;7.45;4.40;;;20.00;38.00;;;;;;5093676;28;20028;-72
2021/04/27 06:24:33;;;;;;;7.97;3.90;;;20.00;38.00;;;;;;5094079;28;20549;-71
2021/04/27 06:26:59;;;;;;;6.47;3.67;;;20.10;37.30;;;;;;5094248;28;20374;-72
2021/04/27 06:29:25;;;;;;;6.45;3.83;;;20.20;37.00;;;;;;5077790;28;20377;-71
2021/04/27 06:31:51;;;;;;;6.82;4.07;;;20.30;37.00;;;;;;5086549;28;20077;-71
2021/04/27 06:34:16;;;;;;;70.32;6.57;;;20.30;36.90;;;;;;5093594;28;20024;-70
2021/04/27 06:36:42;;;;;;;7.32;4.43;;;20.60;37.10;;;;;;5094615;28;20020;-70
2021/04/27 06:39:08;;;;;;;6.35;3.85;;;20.90;37.20;;;;;;5094567;28;20066;-71
2021/04/27 06:41:34;;;;;;;6.80;4.50;;;21.00;37.00;;;;;;5094523;28;20073;-70
2021/04/27 06:44:01;;;;;;;7.07;4.35;;;21.00;36.80;;;;;;5093441;28;20051;-70
2021/04/27 06:46:28;;;;;;;7.43;4.10;;;20.90;36.70;;;;;;5094079;28;20424;-70
2021/04/27 06:48:53;;;;;;;5.82;4.07;;;21.00;36.60;;;;;;5090323;28;20016;-70
2021/04/27 06:51:19;;;;;;;6.03;4.22;;;21.10;36.70;;;;;;5094167;28;20019;-70
2021/04/27 06:53:46;;;;;;;6.03;4.10;;;20.70;36.00;;;;;;5094439;28;20020;-70
2021/04/27 06:56:12;;;;;;;6.25;4.32;;;20.30;36.70;;;;;;5090061;28;20020;-72
2021/04/27 06:58:38;;;;;;;7.15;4.20;;;20.10;37.30;;;;;;5078889;28;20020;-71
2021/04/27 07:01:05;;;;;;;9.80;6.43;;;20.00;37.40;;;;;;5094462;28;20150;-71
2021/04/27 07:03:31;;;;;;;7.47;4.10;;;20.30;37.50;;;;;;5092878;28;20500;-73
2021/04/27 07:05:57;;;;;;;8.85;4.32;;;20.60;37.50;;;;;;5094804;28;20035;-72
2021/04/27 07:08:22;;;;;;;9.05;4.35;;;20.50;36.70;;;;;;5094313;28;20020;-71
2021/04/27 07:10:50;;;;;;;7.18;4.68;;;20.30;36.70;;;;;;5093540;28;20062;-71
2021/04/27 07:13:15;;;;;;;13.80;3.95;;;20.20;37.50;;;;;;5094378;28;20016;-72
2021/04/27 07:15:41;;;;;;;6.15;4.45;;;20.50;37.50;;;;;;5092697;28;20034;-71
2021/04/27 07:18:07;;;;;;;6.80;4.60;;;20.90;36.90;;;;;;5093089;28;20507;-71
2021/04/27 07:20:33;;;;;;;12.68;5.60;;;20.80;36.80;;;;;;5093400;28;20031;-72
2021/04/27 07:22:59;;;;;;;7.45;4.38;;;21.10;37.20;;;;;;5092741;28;20027;-72
2021/04/27 07:25:24;;;;;;;7.30;3.85;;;21.30;36.50;;;;;;5093743;28;20016;-72
2021/04/27 07:27:50;;;;;;;7.90;3.95;;;21.60;36.30;;;;;;5092485;28;20024;-70
2021/04/27 07:30:17;;;;;;;5.85;3.63;;;21.90;35.80;;;;;;5094116;28;20024;-70
2021/04/27 07:32:43;;;;;;;10.55;4.10;;;21.90;35.50;;;;;;5093142;28;20028;-69
2021/04/27 07:55:22;;;;;;;7.15;3.53;;;24.30;32.90;;;;;;5091690;28;20081;-71
2021/04/27 07:57:47;;;;;;;8.73;4.13;;;24.10;32.00;;;;;;5079573;28;20028;-71
2021/04/27 08:00:14;;;;;;;5.88;3.45;;;23.80;32.00;;;;;;5091631;28;20485;-71
2021/04/27 08:02:40;;;;;;;6.07;3.65;;;23.90;31.80;;;;;;5091870;28;20527;-71
2021/04/27 08:05:07;;;;;;;5.25;3.60;;;23.90;32.10;;;;;;5079736;28;20083;-71
2021/04/27 08:10:54;;;;;;;7.35;4.47;;;24.10;31.90;;;;;;5089887;28;20063;-70
2021/04/27 08:13:20;;;;;;;7.05;3.97;;;24.40;31.10;;;;;;5086038;28;20016;-71
2021/04/27 08:15:46;;;;;;;5.03;3.63;;;24.00;30.70;;;;;;5096003;28;20430;-70
2021/04/27 08:18:12;;;;;;;6.45;3.88;;;23.70;31.20;;;;;;5093192;28;20069;-70
2021/04/27 08:20:38;;;;;;;8.13;4.82;;;23.50;31.40;;;;;;5092538;28;20406;-70
2021/04/27 08:23:04;;;;;;;9.00;4.30;;;23.40;31.30;;;;;;5093177;28;20116;-70
2021/04/27 08:25:31;;;;;;;6.80;4.13;;;23.40;31.30;;;;;;5093173;28;20429;-70
2021/04/27 08:27:57;;;;;;;6.25;4.00;;;22.80;30.30;;;;;;5092913;28;20417;-70
2021/04/27 08:30:24;;;;;;;8.07;4.15;;;22.30;31.30;;;;;;5093071;28;20078;-70
2021/04/27 08:32:52;;;;;;;11.25;4.88;;;22.00;32.20;;;;;;5092426;28;20085;-70
2021/04/27 08:35:18;;;;;;;14.63;5.20;;;22.00;32.10;;;;;;5093150;28;20050;-70
2021/04/27 08:37:44;;;;;;;8.98;5.38;;;21.80;32.40;;;;;;5091824;28;20170;-70
2021/04/27 08:40:12;;;;;;;7.00;4.40;;;21.80;32.70;;;;;;5092903;28;20095;-71
2021/04/27 08:42:38;;;;;;;7.63;4.50;;;21.60;32.30;;;;;;5091248;28;20039;-71
2021/04/27 08:45:07;;;;;;;8.05;5.35;;;21.30;33.40;;;;;;5078906;28;20116;-71
2021/04/27 08:47:33;;;;;;;72.28;16.02;;;21.50;33.50;;;;;;5093163;28;20047;-72
2021/04/27 08:49:59;;;;;;;11.02;4.57;;;21.90;33.90;;;;;;5092359;28;20024;-71
2021/04/27 08:52:25;;;;;;;8.07;4.90;;;21.80;33.30;;;;;;5091381;28;20020;-72
2021/04/27 08:54:51;;;;;;;10.30;5.18;;;21.50;33.40;;;;;;5090896;28;20024;-72
2021/04/27 08:57:17;;;;;;;8.05;5.13;;;21.30;33.50;;;;;;5092808;28;20020;-71
2021/04/27 08:59:43;;;;;;;7.78;4.63;;;21.30;33.30;;;;;;5091278;28;20043;-71
2021/04/27 09:02:11;;;;;;;9.02;5.10;;;20.90;32.80;;;;;;5092379;28;20481;-73
2021/04/27 09:04:44;;;;;;;10.50;5.38;;;20.20;33.40;;;;;;5090944;28;20054;-73
2021/04/27 09:07:13;;;;;;;5.78;3.97;;;19.40;34.30;;;;;;5090909;28;20016;-71
2021/04/27 09:09:51;;;;;;;8.18;4.20;;;18.80;34.80;;;;;;5091342;28;20031;-71
2021/04/27 09:12:21;;;;;;;5.28;3.65;;;18.20;35.50;;;;;;5090894;28;20050;-72
2021/04/27 09:14:47;;;;;;;7.10;3.95;;;18.00;35.50;;;;;;5090744;28;20111;-71
2021/04/27 09:17:13;;;;;;;8.45;4.45;;;17.70;35.10;;;;;;5092134;28;20027;-70
2021/04/27 09:19:45;;;;;;;6.65;4.35;;;17.40;35.10;;;;;;5092362;28;20024;-70
2021/04/27 09:22:10;;;;;;;5.97;4.13;;;17.10;35.80;;;;;;5092543;28;20016;-70
2021/04/27 09:25:06;;;;;;;10.00;4.50;;;17.10;36.40;;;;;;5090306;28;20093;-71
2021/04/27 09:27:37;;;;;;;;;;;17.00;37.30;;;;;;5091341;28;20047;-70
2021/04/27 09:30:19;;;;;;;8.32;5.63;;;17.10;37.40;;;;;;5090934;28;19904;-71
2021/04/27 09:32:53;;;;;;;10.50;6.10;;;17.10;38.00;;;;;;5090671;28;20784;-70
2021/04/27 09:35:31;;;;;;;10.75;5.63;;;17.20;38.50;;;;;;5092769;28;20022;-70
2021/04/27 09:38:18;;;;;;;7.53;4.88;;;17.10;38.30;;;;;;5092395;28;20020;-70
2021/04/27 09:40:53;;;;;;;12.25;7.00;;;16.80;38.10;;;;;;5091871;28;20311;-70
2021/04/27 09:43:33;;;;;;;11.63;6.13;;;16.40;38.50;;;;;;5090730;28;20027;-69
2021/04/27 09:46:02;;;;;;;7.25;5.45;;;16.30;39.30;;;;;;5091136;28;20036;-69
2021/04/27 09:48:29;;;;;;;8.00;5.53;;;16.10;39.60;;;;;;5079825;28;20032;-70
2021/04/27 09:50:55;;;;;;;10.00;7.43;;;16.10;40.00;;;;;;5094571;28;20050;-70
2021/04/27 09:53:52;;;;;;;20.00;14.10;;;16.10;40.20;;;;;;5095781;28;20024;-69
2021/04/27 09:56:51;;;;;;;22.25;18.48;;;15.90;40.00;;;;;;5095749;28;20028;-70
2021/04/27 09:59:24;;;;;;;28.25;24.13;;;15.50;39.90;;;;;;5094438;28;20078;-70
2021/04/27 10:01:56;;;;;;;11.23;5.97;;;15.40;40.50;;;;;;5095382;28;20103;-70
2021/04/27 10:04:24;;;;;;;11.98;5.90;;;15.20;40.90;;;;;;5094273;28;20024;-70
2021/04/27 10:06:50;;;;;;;8.68;5.25;;;15.00;41.40;;;;;;5094159;28;20415;-69
2021/04/27 10:09:16;;;;;;;9.75;5.88;;;14.70;41.80;;;;;;5094699;28;20019;-69
2021/04/27 10:11:42;;;;;;;10.48;5.78;;;14.50;42.30;;;;;;5096079;28;20068;-69
2021/04/27 10:14:09;;;;;;;13.65;6.60;;;14.30;42.70;;;;;;5081197;28;20051;-69
2021/04/27 10:16:37;;;;;;;13.43;6.07;;;14.10;43.20;;;;;;5098205;28;20020;-69
2021/04/27 10:19:04;;;;;;;14.40;6.40;;;13.90;43.60;;;;;;5094940;28;20020;-70
2021/04/27 10:21:30;;;;;;;14.45;6.75;;;13.70;43.80;;;;;;5095253;28;20024;-70
2021/04/27 10:23:59;;;;;;;11.90;6.22;;;13.60;44.30;;;;;;5095461;28;20027;-72
2021/04/27 10:26:27;;;;;;;11.27;6.65;;;13.60;44.50;;;;;;5093589;28;20028;-72
2021/04/27 10:29:02;;;;;;;10.68;7.00;;;13.50;44.80;;;;;;5095330;28;20036;-71
2021/04/27 10:31:29;;;;;;;17.00;7.63;;;13.60;45.20;;;;;;5081451;28;20036;-70
2021/04/27 10:34:15;;;;;;;14.55;7.03;;;13.80;45.20;;;;;;5093811;28;20352;-70
2021/04/27 10:36:50;;;;;;;21.02;16.42;;;14.00;45.30;;;;;;5093529;28;20504;-70
2021/04/27 10:39:17;;;;;;;35.13;31.20;;;14.20;45.20;;;;;;5094796;28;20024;-71
2021/04/27 10:41:53;;;;;;;31.35;26.00;;;14.30;45.00;;;;;;5095122;28;20133;-70
2021/04/27 10:44:20;;;;;;;;;;;14.20;44.90;;;;;;5095749;28;20034;-70
2021/04/27 10:46:49;;;;;;;26.85;22.30;;;14.20;44.60;;;;;;5079321;28;20759;-71
2021/04/27 10:49:35;;;;;;;32.08;24.50;;;14.00;44.90;;;;;;5093494;28;20027;-70
2021/04/27 10:52:04;;;;;;;36.03;30.70;;;13.90;44.80;;;;;;5093610;28;20110;-70
2021/04/27 10:54:29;;;;;;;34.22;30.50;;;13.80;45.10;;;;;;5093025;28;20514;-70
2021/04/27 10:57:12;;;;;;;27.73;21.20;;;13.80;45.20;;;;;;5093005;28;20153;-70
2021/04/27 10:59:57;;;;;;;24.35;18.98;;;13.80;45.20;;;;;;5092237;28;20477;-71
2021/04/27 11:02:28;;;;;;;20.85;16.17;;;13.90;45.40;;;;;;5081891;28;20027;-70
2021/04/27 11:05:20;;;;;;;29.67;26.48;;;13.90;45.20;;;;;;5093566;28;20020;-70
2021/04/27 11:07:46;;;;;;;51.63;42.13;;;13.90;45.10;;;;;;5094571;28;20022;-70
2021/04/27 11:10:12;;;;;;;34.05;30.70;;;13.90;45.10;;;;;;5092802;28;20103;-70
2021/04/27 11:12:46;;;;;;;40.42;36.33;;;13.90;45.20;;;;;;5092688;28;20107;-70
2021/04/27 11:15:21;;;;;;;33.72;27.48;;;13.80;45.40;;;;;;5093226;28;20043;-69
2021/04/27 11:18:20;;;;;;;20.63;13.65;;;13.70;45.50;;;;;;5092714;28;20120;-70
2021/04/27 11:21:03;;;;;;;15.25;11.35;;;13.50;45.50;;;;;;5077765;28;20060;-69
2021/04/27 11:23:41;;;;;;;7.65;5.00;;;13.40;45.70;;;;;;5094335;28;20028;-69
2021/04/27 11:26:28;;;;;;;14.52;7.75;;;13.20;45.40;;;;;;5093680;28;20052;-69
2021/04/27 11:28:56;;;;;;;12.40;6.57;;;12.90;45.90;;;;;;5092671;28;20401;-69
2021/04/27 11:31:22;;;;;;;9.85;5.32;;;12.60;46.50;;;;;;5092438;28;20016;-69
2021/04/27 11:33:58;;;;;;;8.93;5.18;;;12.20;46.80;;;;;;5094083;28;20106;-69
2021/04/27 11:36:37;;;;;;;11.13;5.50;;;11.90;47.50;;;;;;5093608;28;20020;-69
2021/04/27 11:39:30;;;;;;;21.15;6.78;;;11.60;47.90;;;;;;5092698;28;20020;-69
2021/04/27 11:42:02;;;;;;;8.60;5.53;;;11.30;48.30;;;;;;5090876;28;20039;-70
2021/04/27 11:44:38;;;;;;;6.03;4.65;;;11.00;51.50;;;;;;5091823;28;20118;-70
2021/04/27 11:47:07;;;;;;;7.55;4.88;;;10.50;54.90;;;;;;5092449;28;20149;-69
2021/04/27 11:49:56;;;;;;;8.50;6.45;;;10.00;57.50;;;;;;5091989;28;20048;-70
2021/04/27 11:52:53;;;;;;;10.93;7.50;;;9.50;59.50;;;;;;5093618;28;20012;-69
2021/04/27 11:55:45;;;;;;;10.10;7.32;;;9.10;60.70;;;;;;5078925;28;20069;-69
2021/04/27 11:58:29;;;;;;;12.43;10.05;;;8.90;61.20;;;;;;5078863;28;20032;-70
2021/04/27 12:00:59;;;;;;;14.55;11.13;;;8.80;62.20;;;;;;5093162;28;20043;-70
2021/04/27 12:03:29;;;;;;;10.77;7.68;;;8.80;62.90;;;;;;5093432;28;20016;-70
2021/04/27 12:05:55;;;;;;;11.30;8.75;;;8.90;63.10;;;;;;5091868;28;20031;-70
2021/04/27 12:08:30;;;;;;;14.57;10.48;;;8.90;62.80;;;;;;5092149;28;20024;-70
2021/04/27 12:11:17;;;;;;;16.63;10.73;;;9.00;63.40;;;;;;5091691;28;20101;-71
2021/04/27 12:13:43;;;;;;;16.60;10.68;;;9.10;63.20;;;;;;5092077;28;20030;-71
2021/04/27 12:16:28;;;;;;;22.48;11.93;;;9.20;63.10;;;;;;5092158;28;20028;-67
2021/04/27 12:19:07;;;;;;;25.83;12.50;;;9.40;63.20;;;;;;5092918;28;20077;-68
2021/04/27 12:21:38;;;;;;;15.32;9.85;;;9.40;63.00;;;;;;5092465;28;20023;-68
2021/04/27 12:24:42;;;;;;;12.63;9.13;;;9.50;62.90;;;;;;5092960;28;20107;-69
2021/04/27 12:27:21;;;;;;;11.65;8.57;;;9.60;62.70;;;;;;5093132;28;20020;-69
2021/04/27 12:30:07;;;;;;;19.80;15.13;;;9.60;62.70;;;;;;5078255;28;20043;-68
2021/04/27 12:32:34;;;;;;;14.65;8.88;;;9.70;62.90;;;;;;5088994;28;20028;-69
2021/04/27 12:35:06;;;;;;;13.13;7.65;;;9.70;62.70;;;;;;5092004;28;20406;-70
2021/04/27 12:37:44;;;;;;;15.07;7.85;;;9.70;62.70;;;;;;5091550;28;20119;-70
2021/04/27 12:40:19;;;;;;;12.88;8.60;;;9.80;62.60;;;;;;5079780;28;20069;-69
2021/04/27 12:42:48;;;;;;;;;;;9.70;62.70;;;;;;5091069;28;20028;-70
2021/04/27 12:45:15;;;;;;;12.48;8.63;;;9.70;62.10;;;;;;5093107;28;19922;-69
2021/04/27 12:47:40;;;;;;;14.18;8.60;;;9.70;62.40;;;;;;5092729;28;20339;-69
2021/04/27 12:50:12;;;;;;;19.35;11.27;;;9.60;62.70;;;;;;5092439;28;20023;-69
2021/04/27 12:52:55;;;;;;;23.20;13.32;;;9.60;63.00;;;;;;5092523;28;20058;-71
2021/04/27 12:55:22;;;;;;;10.90;7.15;;;9.60;63.50;;;;;;5091696;28;20028;-71
2021/04/27 12:57:48;;;;;;;9.05;5.93;;;9.40;64.80;;;;;;5084443;28;20024;-70
2021/04/27 13:00:19;;;;;;;12.55;9.25;;;9.10;66.70;;;;;;5091139;28;20481;-71
2021/04/27 13:02:49;;;;;;;11.43;8.35;;;8.90;68.60;;;;;;5091969;28;20848;-70
2021/04/27 13:05:25;;;;;;;11.73;7.78;;;8.70;69.70;;;;;;5092381;28;20099;-70
2021/04/27 13:08:06;;;;;;;15.10;10.98;;;8.50;70.40;;;;;;5091591;28;20020;-70
2021/04/27 13:10:46;;;;;;;12.98;8.13;;;8.40;71.60;;;;;;5090703;28;20016;-70
2021/04/27 13:13:24;;;;;;;9.50;7.30;;;8.30;71.60;;;;;;5092360;28;20042;-70
2021/04/27 13:16:01;;;;;;;10.43;8.38;;;8.30;72.00;;;;;;5092184;28;20018;-70